WMT3XC EDJA-LATI
Flight info
| Callsign | WMT3XC |
|---|---|
| Flight time | 1h 29m |
| Altitude | 35000 |
| Route | KPT4B KPT Z999 BEMKI L607 XEBIX Z2 TUNUM Z204 GEDSO DCT VEKEN/N0448F370 DCT DARZA DCT GLOMY DCT PETAK |
| Aircraft | A321/M-SDE3FGHIRWY/LB1 |
Departure
| Time | 2026-04-30 09:29 |
|---|---|
| Airport | Memmingen Allgau Airport (EDJA) |
Arrival
| Time | 2026-04-30 10:58 |
|---|---|
| Airport | Tirana International Airport Mother Teresa (LATI) |
| Time | Latitude | Longitude | Altitude | Speed | Heading |
|---|---|---|---|---|---|
| 2026-04-30 08:58 | 47.98761 | 10.22885 | 2077 ft | 0 kts | 49° |
| 2026-04-30 09:25 | 47.98762 | 10.22886 | 2077 ft | 1 kts | 49° |
| 2026-04-30 09:25 | 47.98760 | 10.22894 | 2075 ft | 1 kts | 107° |
| 2026-04-30 09:25 | 47.98748 | 10.22900 | 2075 ft | 4 kts | 164° |
| 2026-04-30 09:26 | 47.98722 | 10.22866 | 2076 ft | 8 kts | 243° |
| 2026-04-30 09:26 | 47.98701 | 10.22782 | 2074 ft | 9 kts | 256° |
| 2026-04-30 09:26 | 47.98664 | 10.22717 | 2079 ft | 8 kts | 190° |
| 2026-04-30 09:26 | 47.98608 | 10.22714 | 2079 ft | 8 kts | 181° |
| 2026-04-30 09:27 | 47.98553 | 10.22713 | 2082 ft | 8 kts | 181° |
| 2026-04-30 09:27 | 47.98506 | 10.22692 | 2083 ft | 7 kts | 212° |
| 2026-04-30 09:27 | 47.98473 | 10.22634 | 2084 ft | 7 kts | 237° |
| 2026-04-30 09:27 | 47.98446 | 10.22571 | 2086 ft | 7 kts | 237° |
| 2026-04-30 09:28 | 47.98408 | 10.22540 | 2087 ft | 5 kts | 174° |
| 2026-04-30 09:28 | 47.98375 | 10.22564 | 2088 ft | 6 kts | 153° |
| 2026-04-30 09:28 | 47.98359 | 10.22630 | 2087 ft | 9 kts | 72° |
| 2026-04-30 09:28 | 47.98417 | 10.22787 | 2085 ft | 41 kts | 59° |
| 2026-04-30 09:29 | 47.98691 | 10.23470 | 2080 ft | 110 kts | 59° |
| 2026-04-30 09:29 | 47.99174 | 10.24691 | 2183 ft | 152 kts | 60° |
| 2026-04-30 09:29 | 47.99672 | 10.26011 | 3047 ft | 143 kts | 62° |
| 2026-04-30 09:29 | 48.00175 | 10.27282 | 3859 ft | 141 kts | 63° |
| 2026-04-30 09:30 | 48.00703 | 10.28605 | 4214 ft | 158 kts | 63° |
| 2026-04-30 09:30 | 48.01304 | 10.30120 | 4486 ft | 180 kts | 62° |
| 2026-04-30 09:30 | 48.01976 | 10.31796 | 4885 ft | 195 kts | 63° |
| 2026-04-30 09:30 | 48.02696 | 10.33596 | 5249 ft | 210 kts | 63° |
| 2026-04-30 09:31 | 48.03438 | 10.35559 | 5735 ft | 221 kts | 70° |
| 2026-04-30 09:31 | 48.03575 | 10.37790 | 6469 ft | 221 kts | 107° |
| 2026-04-30 09:31 | 48.02707 | 10.39675 | 7163 ft | 227 kts | 138° |
| 2026-04-30 09:31 | 48.01390 | 10.40978 | 8008 ft | 229 kts | 147° |
| 2026-04-30 09:32 | 47.99965 | 10.42133 | 8643 ft | 237 kts | 151° |
| 2026-04-30 09:32 | 47.98336 | 10.42730 | 9344 ft | 248 kts | 175° |
| 2026-04-30 09:32 | 47.96550 | 10.42407 | 9740 ft | 273 kts | 191° |
| 2026-04-30 09:32 | 47.94651 | 10.41665 | 10153 ft | 289 kts | 190° |
| 2026-04-30 09:33 | 47.93342 | 10.41199 | 10516 ft | 295 kts | 190° |
| 2026-04-30 09:33 | 47.91263 | 10.40499 | 10703 ft | 318 kts | 189° |
| 2026-04-30 09:33 | 47.89021 | 10.39770 | 10936 ft | 338 kts | 189° |
| 2026-04-30 09:33 | 47.86692 | 10.39012 | 11484 ft | 346 kts | 188° |
| 2026-04-30 09:34 | 47.84323 | 10.38234 | 12113 ft | 352 kts | 189° |
| 2026-04-30 09:34 | 47.81917 | 10.37436 | 12784 ft | 356 kts | 189° |
| 2026-04-30 09:34 | 47.79489 | 10.36628 | 13466 ft | 359 kts | 190° |
| 2026-04-30 09:34 | 47.77035 | 10.35810 | 14078 ft | 365 kts | 189° |
| 2026-04-30 09:35 | 47.74531 | 10.34977 | 14624 ft | 370 kts | 189° |
| 2026-04-30 09:35 | 47.72002 | 10.34237 | 15177 ft | 374 kts | 187° |
| 2026-04-30 09:35 | 47.69419 | 10.33595 | 15751 ft | 378 kts | 186° |
| 2026-04-30 09:35 | 47.66807 | 10.33007 | 16312 ft | 382 kts | 186° |
| 2026-04-30 09:36 | 47.64163 | 10.32431 | 16912 ft | 386 kts | 186° |
| 2026-04-30 09:36 | 47.61484 | 10.31850 | 17465 ft | 391 kts | 185° |
| 2026-04-30 09:36 | 47.58763 | 10.31705 | 17998 ft | 392 kts | 173° |
| 2026-04-30 09:36 | 47.56071 | 10.32320 | 18543 ft | 393 kts | 162° |
| 2026-04-30 09:37 | 47.53509 | 10.33680 | 19040 ft | 392 kts | 150° |
| 2026-04-30 09:37 | 47.51175 | 10.35754 | 19545 ft | 390 kts | 139° |
| 2026-04-30 09:37 | 47.49021 | 10.38138 | 20084 ft | 393 kts | 139° |
| 2026-04-30 09:37 | 47.46819 | 10.40560 | 20647 ft | 396 kts | 139° |
| 2026-04-30 09:38 | 47.44573 | 10.43020 | 21243 ft | 398 kts | 138° |
| 2026-04-30 09:38 | 47.42514 | 10.45726 | 21779 ft | 395 kts | 128° |
| 2026-04-30 09:38 | 47.40841 | 10.48922 | 22299 ft | 392 kts | 117° |
| 2026-04-30 09:38 | 47.39626 | 10.52440 | 22845 ft | 388 kts | 107° |
| 2026-04-30 09:39 | 47.38856 | 10.56240 | 23386 ft | 385 kts | 97° |
| 2026-04-30 09:39 | 47.38334 | 10.60121 | 23890 ft | 387 kts | 97° |
| 2026-04-30 09:39 | 47.37800 | 10.64028 | 24303 ft | 388 kts | 97° |
| 2026-04-30 09:39 | 47.37256 | 10.67945 | 24727 ft | 390 kts | 97° |
| 2026-04-30 09:40 | 47.36706 | 10.71875 | 25167 ft | 392 kts | 97° |
| 2026-04-30 09:40 | 47.36154 | 10.75806 | 25608 ft | 393 kts | 97° |
| 2026-04-30 09:40 | 47.35599 | 10.79772 | 26080 ft | 395 kts | 97° |
| 2026-04-30 09:40 | 47.35043 | 10.83751 | 26501 ft | 397 kts | 97° |
| 2026-04-30 09:41 | 47.34484 | 10.87737 | 26960 ft | 398 kts | 97° |
| 2026-04-30 09:41 | 47.33919 | 10.91742 | 27392 ft | 400 kts | 97° |
| 2026-04-30 09:41 | 47.33350 | 10.95767 | 27770 ft | 402 kts | 97° |
| 2026-04-30 09:41 | 47.32781 | 10.99796 | 28219 ft | 402 kts | 97° |
| 2026-04-30 09:42 | 47.32207 | 11.03842 | 28610 ft | 404 kts | 96° |
| 2026-04-30 09:42 | 47.31628 | 11.07909 | 28980 ft | 406 kts | 96° |
| 2026-04-30 09:42 | 47.31041 | 11.11993 | 29352 ft | 408 kts | 96° |
| 2026-04-30 09:42 | 47.30452 | 11.16097 | 29691 ft | 410 kts | 96° |
| 2026-04-30 09:43 | 47.29861 | 11.20205 | 30034 ft | 412 kts | 96° |
| 2026-04-30 09:43 | 47.29266 | 11.24333 | 30368 ft | 413 kts | 96° |
| 2026-04-30 09:43 | 47.28665 | 11.28491 | 30681 ft | 416 kts | 96° |
| 2026-04-30 09:43 | 47.28058 | 11.32684 | 30938 ft | 419 kts | 96° |
| 2026-04-30 09:44 | 47.27446 | 11.36885 | 31210 ft | 422 kts | 96° |
| 2026-04-30 09:44 | 47.26823 | 11.41129 | 31474 ft | 425 kts | 97° |
| 2026-04-30 09:44 | 47.26198 | 11.45386 | 31813 ft | 426 kts | 97° |
| 2026-04-30 09:44 | 47.25343 | 11.49587 | 32178 ft | 432 kts | 106° |
| 2026-04-30 09:45 | 47.24020 | 11.53588 | 32541 ft | 440 kts | 115° |
| 2026-04-30 09:45 | 47.22288 | 11.57339 | 32876 ft | 444 kts | 119° |
| 2026-04-30 09:45 | 47.20521 | 11.61011 | 33205 ft | 446 kts | 120° |
| 2026-04-30 09:45 | 47.18725 | 11.64755 | 33464 ft | 449 kts | 120° |
| 2026-04-30 09:46 | 47.16902 | 11.68564 | 33741 ft | 451 kts | 120° |
| 2026-04-30 09:46 | 47.15097 | 11.72342 | 34064 ft | 452 kts | 120° |
| 2026-04-30 09:46 | 47.13316 | 11.76063 | 34380 ft | 452 kts | 120° |
| 2026-04-30 09:46 | 47.11499 | 11.79844 | 34650 ft | 453 kts | 120° |
| 2026-04-30 09:47 | 47.09682 | 11.83622 | 34906 ft | 454 kts | 121° |
| 2026-04-30 09:47 | 47.07935 | 11.87475 | 35160 ft | 451 kts | 114° |
| 2026-04-30 09:47 | 47.05165 | 11.95672 | 35279 ft | 445 kts | 111° |
| 2026-04-30 09:48 | 47.02456 | 12.03809 | 35278 ft | 444 kts | 111° |
| 2026-04-30 09:48 | 46.99736 | 12.11918 | 35273 ft | 443 kts | 111° |
| 2026-04-30 09:49 | 46.97001 | 12.20022 | 35295 ft | 444 kts | 111° |
| 2026-04-30 09:49 | 46.94269 | 12.28117 | 35305 ft | 444 kts | 111° |
| 2026-04-30 09:50 | 46.91538 | 12.36211 | 35321 ft | 444 kts | 112° |
| 2026-04-30 09:50 | 46.88782 | 12.44332 | 35301 ft | 447 kts | 112° |
| 2026-04-30 09:51 | 46.86006 | 12.52477 | 35286 ft | 448 kts | 112° |
| 2026-04-30 09:51 | 46.83218 | 12.60625 | 35278 ft | 448 kts | 112° |
| 2026-04-30 09:52 | 46.80427 | 12.68766 | 35266 ft | 449 kts | 112° |
| 2026-04-30 09:52 | 46.77622 | 12.76918 | 35281 ft | 450 kts | 112° |
| 2026-04-30 09:53 | 46.74810 | 12.85068 | 35274 ft | 451 kts | 112° |
| 2026-04-30 09:53 | 46.71972 | 12.93245 | 35280 ft | 452 kts | 113° |
| 2026-04-30 09:54 | 46.69130 | 13.01419 | 35280 ft | 452 kts | 113° |
| 2026-04-30 09:54 | 46.66299 | 13.09573 | 35318 ft | 452 kts | 113° |
| 2026-04-30 09:55 | 46.63468 | 13.17700 | 35304 ft | 453 kts | 113° |
| 2026-04-30 09:55 | 46.60612 | 13.25870 | 35294 ft | 454 kts | 113° |
| 2026-04-30 09:56 | 46.57738 | 13.34046 | 35284 ft | 455 kts | 114° |
| 2026-04-30 09:56 | 46.54062 | 13.41569 | 35298 ft | 462 kts | 130° |
| 2026-04-30 09:57 | 46.49678 | 13.48390 | 35308 ft | 463 kts | 130° |
| 2026-04-30 09:57 | 46.45285 | 13.55251 | 35318 ft | 464 kts | 130° |
| 2026-04-30 09:58 | 46.40901 | 13.62099 | 35331 ft | 464 kts | 130° |
| 2026-04-30 09:58 | 46.36501 | 13.68947 | 35325 ft | 464 kts | 130° |
| 2026-04-30 09:59 | 46.27675 | 13.82618 | 35334 ft | 465 kts | 131° |
| 2026-04-30 10:00 | 46.21018 | 13.92871 | 35340 ft | 466 kts | 131° |
| 2026-04-30 10:01 | 46.14365 | 14.03100 | 35345 ft | 466 kts | 131° |
| 2026-04-30 10:02 | 46.07689 | 14.13314 | 35345 ft | 468 kts | 131° |
| 2026-04-30 10:02 | 46.03192 | 14.20163 | 35331 ft | 472 kts | 131° |
| 2026-04-30 10:03 | 45.98669 | 14.27034 | 35354 ft | 474 kts | 132° |
| 2026-04-30 10:03 | 45.94124 | 14.33925 | 35356 ft | 475 kts | 132° |
| 2026-04-30 10:04 | 45.89593 | 14.40783 | 35384 ft | 476 kts | 132° |
| 2026-04-30 10:04 | 45.85034 | 14.47671 | 35396 ft | 476 kts | 132° |
| 2026-04-30 10:05 | 45.80480 | 14.54531 | 35395 ft | 475 kts | 132° |
| 2026-04-30 10:05 | 45.75921 | 14.61374 | 35394 ft | 474 kts | 132° |
| 2026-04-30 10:06 | 45.71361 | 14.68199 | 35409 ft | 474 kts | 133° |
| 2026-04-30 10:06 | 45.66800 | 14.75010 | 35398 ft | 474 kts | 133° |
| 2026-04-30 10:07 | 45.62244 | 14.81815 | 35394 ft | 474 kts | 133° |
| 2026-04-30 10:07 | 45.57682 | 14.88615 | 35372 ft | 473 kts | 133° |
| 2026-04-30 10:08 | 45.53112 | 14.95388 | 35364 ft | 474 kts | 134° |
| 2026-04-30 10:08 | 45.48514 | 15.02152 | 35382 ft | 475 kts | 134° |
| 2026-04-30 10:09 | 45.43871 | 15.08875 | 35391 ft | 476 kts | 134° |
| 2026-04-30 10:09 | 45.39197 | 15.15560 | 35382 ft | 476 kts | 135° |
| 2026-04-30 10:10 | 45.34548 | 15.22198 | 35375 ft | 476 kts | 135° |
| 2026-04-30 10:10 | 45.29875 | 15.28871 | 35374 ft | 477 kts | 135° |
| 2026-04-30 10:11 | 45.25186 | 15.35565 | 35377 ft | 478 kts | 135° |
| 2026-04-30 10:11 | 45.20491 | 15.42243 | 35385 ft | 479 kts | 135° |
| 2026-04-30 10:12 | 45.15787 | 15.48928 | 35380 ft | 479 kts | 135° |
| 2026-04-30 10:12 | 45.11074 | 15.55596 | 35403 ft | 479 kts | 135° |
| 2026-04-30 10:13 | 45.06355 | 15.62261 | 35368 ft | 479 kts | 135° |
| 2026-04-30 10:13 | 45.01630 | 15.68911 | 35365 ft | 480 kts | 135° |
| 2026-04-30 10:14 | 44.96890 | 15.75564 | 35362 ft | 481 kts | 135° |
| 2026-04-30 10:14 | 44.89757 | 15.85554 | 35371 ft | 481 kts | 136° |
| 2026-04-30 10:15 | 44.84999 | 15.92202 | 35346 ft | 482 kts | 136° |
| 2026-04-30 10:15 | 44.80227 | 15.98861 | 35342 ft | 483 kts | 136° |
| 2026-04-30 10:16 | 44.75442 | 16.05510 | 35338 ft | 484 kts | 136° |
| 2026-04-30 10:17 | 44.68269 | 16.15429 | 35345 ft | 484 kts | 137° |
| 2026-04-30 10:17 | 44.61059 | 16.25358 | 35342 ft | 484 kts | 137° |
| 2026-04-30 10:18 | 44.57030 | 16.30904 | 35302 ft | 484 kts | 137° |
| 2026-04-30 10:19 | 44.49831 | 16.40794 | 35295 ft | 486 kts | 137° |
| 2026-04-30 10:19 | 44.44999 | 16.47411 | 35306 ft | 487 kts | 137° |
| 2026-04-30 10:20 | 44.40145 | 16.54033 | 35301 ft | 487 kts | 137° |
| 2026-04-30 10:20 | 44.32860 | 16.63946 | 35294 ft | 487 kts | 137° |
| 2026-04-30 10:21 | 44.27999 | 16.70526 | 35299 ft | 488 kts | 138° |
| 2026-04-30 10:21 | 44.23126 | 16.77127 | 35309 ft | 488 kts | 138° |
| 2026-04-30 10:22 | 44.18260 | 16.83716 | 35293 ft | 488 kts | 138° |
| 2026-04-30 10:22 | 44.13373 | 16.90300 | 35297 ft | 488 kts | 138° |
| 2026-04-30 10:23 | 44.08486 | 16.96853 | 35265 ft | 488 kts | 139° |
| 2026-04-30 10:23 | 44.03595 | 17.03407 | 35273 ft | 489 kts | 139° |
| 2026-04-30 10:24 | 43.98696 | 17.09961 | 35259 ft | 489 kts | 139° |
| 2026-04-30 10:24 | 43.93784 | 17.16506 | 35263 ft | 489 kts | 139° |
| 2026-04-30 10:25 | 43.88865 | 17.23034 | 35257 ft | 489 kts | 139° |
| 2026-04-30 10:25 | 43.83946 | 17.29561 | 35237 ft | 489 kts | 140° |
| 2026-04-30 10:26 | 43.79060 | 17.36040 | 35222 ft | 490 kts | 140° |
| 2026-04-30 10:26 | 43.74131 | 17.42555 | 35227 ft | 490 kts | 140° |
| 2026-04-30 10:27 | 43.69185 | 17.49061 | 35222 ft | 491 kts | 140° |
| 2026-04-30 10:27 | 43.64245 | 17.55559 | 35229 ft | 491 kts | 140° |
| 2026-04-30 10:28 | 43.59292 | 17.62062 | 35178 ft | 491 kts | 141° |
| 2026-04-30 10:28 | 43.54121 | 17.68180 | 35180 ft | 486 kts | 151° |
| 2026-04-30 10:29 | 43.48550 | 17.73489 | 35188 ft | 487 kts | 151° |
| 2026-04-30 10:29 | 43.42972 | 17.78801 | 35200 ft | 488 kts | 151° |
| 2026-04-30 10:30 | 43.37380 | 17.84121 | 35170 ft | 489 kts | 151° |
| 2026-04-30 10:30 | 43.31783 | 17.89445 | 35177 ft | 489 kts | 151° |
| 2026-04-30 10:31 | 43.26180 | 17.94761 | 35183 ft | 490 kts | 151° |
| 2026-04-30 10:31 | 43.20567 | 18.00066 | 35188 ft | 490 kts | 151° |
| 2026-04-30 10:32 | 43.14956 | 18.05356 | 35151 ft | 490 kts | 152° |
| 2026-04-30 10:32 | 43.09340 | 18.10640 | 35164 ft | 490 kts | 152° |
| 2026-04-30 10:33 | 43.03711 | 18.15929 | 35172 ft | 491 kts | 152° |
| 2026-04-30 10:33 | 42.98075 | 18.21206 | 35191 ft | 491 kts | 152° |
| 2026-04-30 10:34 | 42.92442 | 18.26475 | 35169 ft | 491 kts | 152° |
| 2026-04-30 10:34 | 42.86805 | 18.31737 | 35157 ft | 491 kts | 152° |
| 2026-04-30 10:35 | 42.81159 | 18.36997 | 35151 ft | 491 kts | 152° |
| 2026-04-30 10:35 | 42.75556 | 18.42191 | 35145 ft | 490 kts | 152° |
| 2026-04-30 10:36 | 42.69918 | 18.47412 | 35117 ft | 490 kts | 152° |
| 2026-04-30 10:36 | 42.67095 | 18.50026 | 34897 ft | 489 kts | 152° |
| 2026-04-30 10:36 | 42.64289 | 18.52623 | 34656 ft | 489 kts | 153° |
| 2026-04-30 10:37 | 42.61474 | 18.55221 | 34416 ft | 489 kts | 153° |
| 2026-04-30 10:37 | 42.58663 | 18.57811 | 34199 ft | 489 kts | 153° |
| 2026-04-30 10:37 | 42.55842 | 18.60409 | 33936 ft | 489 kts | 153° |
| 2026-04-30 10:37 | 42.53024 | 18.62999 | 33655 ft | 490 kts | 153° |
| 2026-04-30 10:38 | 42.50204 | 18.65586 | 33386 ft | 490 kts | 153° |
| 2026-04-30 10:38 | 42.47391 | 18.68168 | 32898 ft | 487 kts | 153° |
| 2026-04-30 10:38 | 42.44588 | 18.70737 | 32338 ft | 485 kts | 153° |
| 2026-04-30 10:38 | 42.41800 | 18.73293 | 31748 ft | 484 kts | 153° |
| 2026-04-30 10:39 | 42.39006 | 18.75851 | 31149 ft | 483 kts | 153° |
| 2026-04-30 10:39 | 42.36228 | 18.78390 | 30554 ft | 482 kts | 153° |
| 2026-04-30 10:39 | 42.33451 | 18.80926 | 29910 ft | 481 kts | 153° |
| 2026-04-30 10:39 | 42.30680 | 18.83454 | 29299 ft | 477 kts | 153° |
| 2026-04-30 10:40 | 42.27940 | 18.85952 | 28709 ft | 474 kts | 153° |
| 2026-04-30 10:40 | 42.25217 | 18.88429 | 28112 ft | 470 kts | 153° |
| 2026-04-30 10:40 | 42.22517 | 18.90885 | 27521 ft | 466 kts | 152° |
| 2026-04-30 10:40 | 42.19842 | 18.93315 | 26928 ft | 463 kts | 152° |
| 2026-04-30 10:41 | 42.17176 | 18.95735 | 26341 ft | 459 kts | 152° |
| 2026-04-30 10:41 | 42.14568 | 18.98095 | 25769 ft | 455 kts | 152° |
| 2026-04-30 10:41 | 42.11919 | 19.00488 | 25207 ft | 451 kts | 152° |
| 2026-04-30 10:41 | 42.09324 | 19.02829 | 24655 ft | 447 kts | 152° |
| 2026-04-30 10:42 | 42.06785 | 19.05123 | 24134 ft | 443 kts | 152° |
| 2026-04-30 10:42 | 42.04239 | 19.07426 | 23586 ft | 439 kts | 152° |
| 2026-04-30 10:42 | 42.01689 | 19.09730 | 23046 ft | 433 kts | 152° |
| 2026-04-30 10:42 | 41.99204 | 19.11971 | 22559 ft | 427 kts | 151° |
| 2026-04-30 10:43 | 41.96745 | 19.14184 | 22081 ft | 423 kts | 151° |
| 2026-04-30 10:43 | 41.94338 | 19.16344 | 21584 ft | 420 kts | 151° |
| 2026-04-30 10:43 | 41.91887 | 19.18542 | 21106 ft | 417 kts | 151° |
| 2026-04-30 10:43 | 41.89515 | 19.20668 | 20634 ft | 414 kts | 151° |
| 2026-04-30 10:44 | 41.87127 | 19.22808 | 20133 ft | 411 kts | 150° |
| 2026-04-30 10:44 | 41.84754 | 19.24935 | 19635 ft | 409 kts | 150° |
| 2026-04-30 10:44 | 41.82392 | 19.27050 | 19127 ft | 406 kts | 150° |
| 2026-04-30 10:44 | 41.80049 | 19.29143 | 18627 ft | 404 kts | 150° |
| 2026-04-30 10:45 | 41.77779 | 19.31368 | 18080 ft | 404 kts | 142° |
| 2026-04-30 10:45 | 41.75842 | 19.34083 | 17581 ft | 403 kts | 133° |
| 2026-04-30 10:45 | 41.74061 | 19.36952 | 17053 ft | 398 kts | 133° |
| 2026-04-30 10:45 | 41.72297 | 19.39781 | 16556 ft | 394 kts | 133° |
| 2026-04-30 10:46 | 41.70539 | 19.42584 | 16035 ft | 390 kts | 133° |
| 2026-04-30 10:46 | 41.68795 | 19.45354 | 15542 ft | 387 kts | 133° |
| 2026-04-30 10:46 | 41.67071 | 19.48089 | 15037 ft | 383 kts | 134° |
| 2026-04-30 10:46 | 41.65226 | 19.50615 | 14535 ft | 375 kts | 145° |
| 2026-04-30 10:47 | 41.63085 | 19.52489 | 14050 ft | 365 kts | 158° |
| 2026-04-30 10:47 | 41.60744 | 19.53671 | 13544 ft | 355 kts | 170° |
| 2026-04-30 10:47 | 41.58350 | 19.54181 | 13077 ft | 344 kts | 179° |
| 2026-04-30 10:47 | 41.55987 | 19.54494 | 12612 ft | 339 kts | 178° |
| 2026-04-30 10:48 | 41.53646 | 19.54810 | 12155 ft | 334 kts | 178° |
| 2026-04-30 10:48 | 41.51356 | 19.55124 | 11709 ft | 329 kts | 178° |
| 2026-04-30 10:48 | 41.49084 | 19.55434 | 11271 ft | 329 kts | 178° |
| 2026-04-30 10:48 | 41.46799 | 19.55745 | 10823 ft | 328 kts | 178° |
| 2026-04-30 10:49 | 41.44554 | 19.56053 | 10531 ft | 319 kts | 177° |
| 2026-04-30 10:49 | 41.42411 | 19.56352 | 10402 ft | 306 kts | 178° |
| 2026-04-30 10:49 | 41.40337 | 19.56640 | 10284 ft | 294 kts | 178° |
| 2026-04-30 10:49 | 41.38334 | 19.56914 | 10084 ft | 285 kts | 178° |
| 2026-04-30 10:50 | 41.36382 | 19.57181 | 9947 ft | 280 kts | 178° |
| 2026-04-30 10:50 | 41.34438 | 19.57441 | 9540 ft | 281 kts | 178° |
| 2026-04-30 10:50 | 41.32502 | 19.57699 | 9181 ft | 278 kts | 178° |
| 2026-04-30 10:50 | 41.30573 | 19.57957 | 8824 ft | 279 kts | 178° |
| 2026-04-30 10:51 | 41.28626 | 19.58218 | 8470 ft | 281 kts | 178° |
| 2026-04-30 10:51 | 41.26686 | 19.58478 | 8189 ft | 278 kts | 177° |
| 2026-04-30 10:51 | 41.24747 | 19.58740 | 7794 ft | 282 kts | 178° |
| 2026-04-30 10:51 | 41.22812 | 19.59003 | 7530 ft | 278 kts | 178° |
| 2026-04-30 10:52 | 41.20869 | 19.59288 | 7123 ft | 280 kts | 173° |
| 2026-04-30 10:52 | 41.19077 | 19.60286 | 6751 ft | 286 kts | 144° |
| 2026-04-30 10:52 | 41.17869 | 19.62381 | 6349 ft | 291 kts | 113° |
| 2026-04-30 10:52 | 41.17608 | 19.65027 | 5964 ft | 292 kts | 84° |
| 2026-04-30 10:53 | 41.17852 | 19.67702 | 5580 ft | 291 kts | 84° |
| 2026-04-30 10:53 | 41.18068 | 19.70338 | 5197 ft | 283 kts | 84° |
| 2026-04-30 10:53 | 41.18595 | 19.72784 | 4789 ft | 274 kts | 57° |
| 2026-04-30 10:53 | 41.19972 | 19.74402 | 4363 ft | 262 kts | 20° |
| 2026-04-30 10:54 | 41.21702 | 19.74694 | 3967 ft | 245 kts | 352° |
| 2026-04-30 10:54 | 41.23351 | 19.74470 | 3589 ft | 229 kts | 351° |
| 2026-04-30 10:54 | 41.24868 | 19.74268 | 3325 ft | 218 kts | 352° |
| 2026-04-30 10:54 | 41.26355 | 19.74067 | 3040 ft | 206 kts | 352° |
| 2026-04-30 10:55 | 41.27739 | 19.73881 | 2776 ft | 192 kts | 353° |
| 2026-04-30 10:55 | 41.29014 | 19.73712 | 2541 ft | 180 kts | 353° |
| 2026-04-30 10:55 | 41.30245 | 19.73546 | 2346 ft | 173 kts | 355° |
| 2026-04-30 10:55 | 41.31402 | 19.73390 | 2144 ft | 158 kts | 355° |
| 2026-04-30 10:56 | 41.32481 | 19.73244 | 1923 ft | 153 kts | 354° |
| 2026-04-30 10:56 | 41.33528 | 19.73103 | 1686 ft | 150 kts | 355° |
| 2026-04-30 10:56 | 41.34557 | 19.72965 | 1449 ft | 148 kts | 356° |
| 2026-04-30 10:56 | 41.35566 | 19.72831 | 1216 ft | 145 kts | 355° |
| 2026-04-30 10:57 | 41.36562 | 19.72700 | 993 ft | 142 kts | 355° |
| 2026-04-30 10:57 | 41.37535 | 19.72575 | 811 ft | 139 kts | 355° |
| 2026-04-30 10:57 | 41.38490 | 19.72463 | 626 ft | 137 kts | 354° |
| 2026-04-30 10:57 | 41.39423 | 19.72339 | 399 ft | 133 kts | 352° |
| 2026-04-30 10:58 | 41.40333 | 19.72213 | 177 ft | 131 kts | 352° |
| 2026-04-30 10:58 | 41.41164 | 19.72097 | 129 ft | 103 kts | 354° |
| 2026-04-30 10:58 | 41.41706 | 19.72024 | 123 ft | 54 kts | 355° |
| 2026-04-30 10:58 | 41.41869 | 19.71988 | 122 ft | 9 kts | 309° |
| 2026-04-30 10:59 | 41.41877 | 19.71909 | 124 ft | 8 kts | 270° |
| 2026-04-30 10:59 | 41.41871 | 19.71830 | 123 ft | 9 kts | 264° |
| 2026-04-30 10:59 | 41.41865 | 19.71742 | 124 ft | 11 kts | 264° |
| 2026-04-30 10:59 | 41.41857 | 19.71630 | 123 ft | 12 kts | 277° |
| 2026-04-30 11:00 | 41.41930 | 19.71583 | 122 ft | 13 kts | 352° |
| 2026-04-30 11:00 | 41.42026 | 19.71570 | 121 ft | 15 kts | 354° |
| 2026-04-30 11:00 | 41.42074 | 19.71563 | 120 ft | 10 kts | 354° |
| 2026-04-30 11:00 | 41.42106 | 19.71537 | 118 ft | 4 kts | 287° |
| 2026-04-30 11:01 | 41.42106 | 19.71512 | 118 ft | 2 kts | 265° |
| 2026-04-30 11:01 | 41.42104 | 19.71494 | 119 ft | 0 kts | 265° |
| 2026-04-30 11:01 | 41.42104 | 19.71493 | 119 ft | 0 kts | 265° |